Date,TemperatureHighF,TemperatureAvgF,TemperatureLowF,DewpointHighF,DewpointAvgF,DewpointLowF,HumidityHigh,HumidityAvg,HumidityLow,PressureMaxIn,PressureMinIn,WindSpeedMaxMPH,WindSpeedAvgMPH,GustSpeedMaxMPH,PrecipitationSumIn
2013-1-1,36,27,15,26,17,9,78,67,56,29.99,29.80,9,0,10,0.00
2013-1-2,28,18,6,18,12,4,92,78,56,30.16,29.97,9,0,10,0.00
2013-1-3,26,16,4,15,8,0,89,71,55,30.19,30.04,6,0,7,0.00
2013-1-4,38,28,17,26,22,14,90,76,60,30.04,29.88,10,1,11,0.02
2013-1-5,41,30,24,28,23,18,89,75,54,30.26,29.93,10,0,12,0.07
2013-1-6,42,32,24,31,27,21,95,84,62,30.21,29.94,9,0,9,0.06
2013-1-7,39,26,18,29,22,16,96,85,58,30.38,30.01,6,0,14,0.00
2013-1-8,18,16,14,16,14,13,94,94,93,30.37,30.34,2,0,2,0.00
2013-1-9,40,33,20,35,30,19,97,89,72,30.38,30.09,4,0,5,0.00
2013-1-10,44,37,26,32,26,24,94,67,46,30.54,30.16,11,1,12,0.00
2013-1-11,37,31,23,36,28,22,99,91,71,30.53,30.14,7,0,7,0.33
2013-1-12,44,39,35,44,38,35,100,99,98,30.17,30.08,3,0,3,0.05
2013-1-13,44,40,36,44,40,35,100,100,99,30.15,29.99,3,0,3,0.01
2013-1-14,51,43,35,51,39,27,100,88,68,30.30,29.88,10,0,11,0.02
2013-1-15,37,33,28,29,27,25,89,77,65,30.34,30.21,6,0,6,0.01
2013-1-16,33,31,29,32,30,26,99,95,76,30.22,29.80,4,0,4,0.02
2013-1-17,39,32,26,35,28,15,99,86,64,30.10,29.87,7,0,7,0.28
2013-1-18,27,21,14,17,10,4,89,63,41,30.45,30.03,11,1,13,0.00
2013-1-19,44,31,15,30,24,12,93,76,54,30.38,29.88,9,1,9,0.06
2013-1-20,50,36,26,33,24,11,96,67,31,29.99,29.62,11,1,14,0.00
2013-1-21,28,24,16,22,14,7,94,70,49,30.08,29.78,8,0,10,0.00
2013-1-22,22,17,8,19,5,-3,96,62,39,30.14,29.78,13,1,13,0.01
2013-1-23,19,10,1,2,-2,-4,83,61,39,30.20,30.12,12,1,12,0.00
2013-1-24,21,10,-2,4,-1,-5,89,63,37,30.34,30.14,13,1,15,0.00
2013-1-25,21,15,7,13,4,0,90,65,40,30.39,30.06,8,0,10,0.00
2013-1-26,24,16,6,12,7,3,92,70,48,30.33,30.03,10,1,11,0.00
2013-1-27,32,19,6,12,7,2,90,63,28,30.49,30.33,14,0,17,0.00
2013-1-28,31,24,14,31,21,10,98,86,62,30.48,29.98,0,0,5,0.00
2013-1-29,38,34,31,36,33,31,99,97,92,30.15,29.98,0,0,4,0.23
2013-1-30,51,40,33,51,40,33,100,100,98,30.10,29.40,2,0,7,0.02
2013-1-31,58,37,28,58,28,15,100,70,42,29.68,28.99,11,2,21,0.22
2013-2-1,31,25,20,16,12,6,70,57,40,30.16,29.67,18,1,18,0.00
2013-2-2,30,19,13,18,12,7,91,77,40,30.26,30.06,6,0,10,0.00
2013-2-3,31,22,13,19,16,11,94,81,57,30.06,29.77,7,0,7,0.02
2013-2-4,30,23,17,20,13,6,94,68,40,29.95,29.77,10,1,11,0.00
2013-2-5,30,25,20,24,20,14,92,82,71,29.99,29.90,4,0,4,0.00
2013-2-6,37,29,21,28,21,5,95,72,47,30.34,29.91,10,0,10,0.04
2013-2-7,34,24,16,17,10,5,76,55,33,30.51,30.33,6,0,7,0.00
2013-2-8,30,28,23,29,24,16,95,85,63,30.37,29.65,12,1,12,0.00
2013-2-9,27,22,15,23,14,5,100,74,52,30.30,29.73,16,2,16,0.05
2013-2-10,36,23,5,15,8,-1,86,56,24,30.47,30.30,9,1,11,0.25
2013-2-11,38,31,18,38,30,12,99,95,77,30.34,29.66,6,0,6,0.31
2013-2-12,44,36,32,36,30,26,100,81,57,29.93,29.67,14,1,14,0.13
2013-2-13,34,29,21,31,26,20,96,89,74,29.92,29.70,3,0,3,0.00
2013-2-14,43,32,21,33,26,20,97,81,48,29.99,29.71,7,0,7,0.06
2013-2-15,51,36,23,34,29,22,100,79,49,30.00,29.89,6,0,7,0.00
2013-2-16,37,32,27,32,24,16,96,74,52,29.96,29.71,8,0,9,0.07
2013-2-17,30,22,14,18,7,1,67,52,32,29.89,29.59,17,2,17,0.00
2013-2-18,33,21,11,16,8,2,85,59,31,30.21,29.89,12,1,12,0.00
2013-2-19,44,31,18,37,26,14,98,83,57,30.21,29.63,13,0,13,0.17
2013-2-20,35,24,21,35,14,10,98,64,55,29.90,29.64,11,1,11,0.00
2013-2-21,26,21,20,14,13,13,77,71,60,30.30,29.90,12,1,12,0.00
2013-2-22,38,30,15,28,23,13,94,76,55,30.41,30.28,5,0,5,0.00
2013-2-23,38,35,33,37,34,32,97,96,94,30.16,29.82,5,0,8,0.11
2013-2-24,42,37,32,37,32,25,99,84,68,29.93,29.72,10,1,12,0.01
2013-2-25,40,32,28,29,27,25,93,84,59,30.24,29.93,3,0,5,0.00
2013-2-26,44,34,25,31,27,24,95,77,52,30.31,30.03,9,1,11,0.04
2013-2-27,42,39,34,41,39,34,100,97,95,29.62,29.51,12,1,12,0.66
2013-2-28,46,36,32,39,35,32,100,94,71,29.61,29.52,4,0,4,0.02
2013-3-1,40,36,34,34,31,27,95,84,71,29.75,29.57,6,0,7,0.00
2013-3-2,38,34,28,28,26,23,84,73,65,29.75,29.67,10,1,10,0.00
2013-3-3,33,29,26,27,22,18,89,77,61,29.72,29.65,12,1,13,0.00
2013-3-4,41,33,26,27,23,19,82,67,52,29.86,29.71,14,2,14,0.00
2013-3-5,46,36,26,30,26,22,85,69,50,30.02,29.86,13,1,13,0.00
2013-3-6,41,36,34,38,31,28,92,82,71,30.00,29.92,11,2,13,0.03
2013-3-7,37,34,31,34,30,27,95,85,76,30.07,29.94,11,1,12,0.01
2013-3-8,37,32,29,32,29,26,96,88,75,30.19,29.97,11,0,11,0.22
2013-3-9,53,36,22,31,26,20,100,72,35,30.32,30.18,8,0,9,0.16
2013-3-10,54,38,23,35,29,21,97,75,45,30.38,30.27,6,0,7,0.00
2013-3-11,54,43,34,45,38,32,95,84,61,30.31,30.09,7,0,7,0.00
2013-3-12,53,49,39,52,48,36,99,95,87,30.09,29.66,9,1,9,0.86
2013-3-13,50,40,32,37,30,23,92,68,40,29.85,29.75,9,1,10,0.01
2013-3-14,35,30,26,31,18,12,91,62,44,29.89,29.80,16,2,18,0.02
2013-3-15,42,32,21,31,20,10,84,62,40,29.93,29.69,15,1,15,0.00
2013-3-16,39,32,26,28,23,16,92,69,41,29.90,29.73,6,0,7,0.00
2013-3-17,37,29,21,26,16,8,95,62,31,30.31,29.89,12,1,13,0.01
2013-3-18,36,28,17,27,14,7,94,60,32,30.42,30.08,8,1,9,0.00
2013-3-19,39,33,29,36,31,27,97,92,84,30.08,29.67,11,1,11,0.34
2013-3-20,40,31,24,29,22,18,93,71,43,29.82,29.76,12,1,12,0.11
2013-3-21,39,30,24,24,18,12,92,64,36,29.82,29.61,8,0,8,0.00
2013-3-22,39,30,18,25,20,14,89,67,50,29.82,29.68,11,1,11,0.00
2013-3-23,45,36,28,26,22,18,82,60,36,29.88,29.75,15,1,15,0.00
2013-3-24,45,34,22,28,24,19,92,68,46,29.91,29.71,13,1,13,0.00
2013-3-25,46,37,31,29,27,25,83,67,49,29.73,29.45,12,1,12,0.00
2013-3-26,50,38,27,33,28,24,92,69,40,29.83,29.57,9,0,10,0.00
2013-3-27,54,38,23,30,25,21,95,65,32,29.93,29.82,12,1,12,0.00
2013-3-28,51,40,32,36,32,27,86,73,54,30.08,29.92,10,1,11,0.00
2013-3-29,55,44,34,35,30,28,83,61,38,30.10,30.01,11,1,12,0.00
2013-3-30,57,42,27,35,27,21,96,63,27,30.13,30.03,14,1,14,0.00
2013-3-31,56,42,27,41,30,23,95,67,33,30.12,29.66,11,1,12,0.11
2013-4-1,61,44,32,48,37,15,99,77,44,29.86,29.57,12,1,14,0.02
2013-4-2,43,33,23,21,16,10,84,52,28,30.02,29.86,17,2,17,0.00
2013-4-3,47,35,26,19,15,11,67,46,26,30.26,30.01,14,1,15,0.00
2013-4-4,56,40,24,28,21,15,78,49,24,30.35,30.05,10,1,10,0.00
2013-4-5,62,45,32,31,26,18,87,54,20,30.05,29.69,11,1,11,0.00
2013-4-6,49,38,30,24,16,6,68,43,18,30.30,29.96,9,1,13,0.00
2013-4-7,58,42,28,42,31,19,92,66,37,30.29,29.99,16,2,16,0.00
2013-4-8,69,52,34,44,39,33,98,66,33,30.07,29.97,9,0,10,0.00
2013-4-9,76,60,45,54,47,43,98,66,33,29.99,29.87,14,1,14,0.01
2013-4-10,66,56,47,56,51,43,98,83,62,29.95,29.80,12,0,12,0.29
2013-4-11,56,51,44,53,45,31,98,82,50,30.07,29.78,7,0,8,0.00
2013-4-12,44,39,37,39,36,33,95,89,67,30.07,29.74,12,1,12,0.38
2013-4-13,54,44,36,42,38,35,98,80,51,29.93,29.75,7,0,8,0.07
2013-4-14,53,42,32,40,32,26,98,71,39,30.22,29.92,12,1,12,0.00
2013-4-15,61,44,30,38,32,28,95,66,37,30.38,30.21,7,1,8,0.00
2013-4-16,67,51,35,54,45,33,95,82,56,30.38,30.09,13,1,13,0.01
2013-4-17,66,55,41,53,40,33,97,63,31,30.29,30.10,7,1,13,0.01
2013-4-18,62,49,36,47,38,32,93,69,38,30.35,30.11,12,1,12,0.00
2013-4-19,72,61,51,64,58,47,99,89,70,30.11,29.63,14,1,14,0.17
2013-4-20,62,50,38,60,38,25,97,68,34,30.28,29.62,14,1,14,0.32
2013-4-21,54,41,30,31,25,20,82,55,31,30.62,30.28,11,1,13,0.00
2013-4-22,59,44,30,36,31,25,95,66,30,30.69,30.51,13,1,13,0.00
2013-4-23,48,41,33,41,36,29,92,82,74,30.51,30.10,8,0,8,0.00
2013-4-24,74,55,39,51,45,37,96,73,41,30.11,29.80,12,1,12,0.00
2013-4-25,62,52,38,50,37,25,96,60,27,30.25,29.83,11,1,11,0.02
2013-4-26,65,49,31,41,34,29,94,61,29,30.37,30.25,8,1,13,0.00
2013-4-27,70,59,31,40,34,27,95,43,24,30.41,30.25,7,1,7,0.00
2013-4-28,74,55,36,46,38,32,93,59,30,30.31,30.18,9,1,9,0.00
2013-4-29,59,53,47,48,42,34,85,67,53,30.24,30.19,7,0,7,0.00
2013-4-30,71,57,42,46,37,26,89,53,20,30.33,30.21,7,0,9,0.00
2013-5-1,74,55,36,45,37,27,89,58,21,30.48,30.32,10,1,10,0.00
2013-5-2,80,60,37,49,43,36,98,60,25,30.46,30.27,8,0,8,0.00
2013-5-3,71,58,45,45,39,33,88,52,29,30.45,30.31,10,1,10,0.00
2013-5-4,76,51,39,49,42,38,98,76,27,30.36,30.18,7,0,11,0.00
2013-5-5,72,52,34,45,39,33,98,68,27,30.29,30.17,8,0,9,0.00
2013-5-6,75,54,36,52,46,35,98,76,41,30.27,30.11,7,0,8,0.00
2013-5-7,80,61,42,57,51,41,99,74,35,30.17,30.06,8,0,8,0.00
2013-5-8,68,60,53,64,58,52,99,94,79,30.12,29.98,9,0,9,0.20
2013-5-9,65,57,50,61,56,50,100,95,81,30.01,29.86,5,0,5,0.34
2013-5-10,79,63,46,64,56,46,100,79,45,29.98,29.87,6,0,6,0.00
2013-5-11,65,61,57,64,60,56,99,97,90,29.88,29.67,7,0,7,0.53
2013-5-12,68,58,43,60,48,28,99,74,33,29.87,29.61,10,0,11,0.01
2013-5-13,55,45,35,37,34,30,96,68,41,30.08,29.86,11,1,14,0.00
2013-5-14,59,45,30,38,32,27,98,67,32,30.09,29.99,13,0,14,0.00
2013-5-15,64,50,32,55,44,31,97,84,58,30.07,29.67,8,0,10,0.03
2013-5-16,83,62,42,59,47,37,99,66,24,29.81,29.67,10,0,12,0.00
2013-5-17,70,56,45,48,44,41,93,67,39,30.20,29.81,8,0,9,0.00
2013-5-18,72,57,41,54,48,40,96,74,46,30.30,30.20,9,0,9,0.00
2013-5-19,57,54,49,56,53,48,98,96,94,30.32,30.17,7,0,7,0.09
2013-5-20,81,66,55,69,62,55,100,88,60,30.17,29.92,6,0,6,0.01
2013-5-21,89,66,57,73,63,57,100,92,53,29.96,29.78,2,0,9,0.00
2013-5-22,78,67,58,73,64,56,100,92,79,29.91,29.80,7,0,7,0.71
2013-5-23,71,66,63,71,66,62,100,98,94,29.87,29.74,6,0,6,1.82
2013-5-24,64,57,44,64,56,43,100,98,85,29.92,29.64,10,0,10,0.02
2013-5-25,46,44,42,45,43,41,97,96,93,29.92,29.83,11,1,11,0.00
2013-5-26,62,50,40,48,43,39,96,79,50,30.16,29.85,14,1,15,0.00
2013-5-27,74,54,35,51,43,35,99,72,32,30.21,30.09,7,0,7,0.00
2013-5-28,62,51,42,58,50,41,98,94,72,30.21,30.13,2,0,2,0.09
2013-5-29,80,66,56,73,63,56,99,91,72,30.14,29.97,5,0,6,0.05
2013-5-30,84,66,59,71,64,58,99,94,65,30.09,30.02,1,0,3,0.00
2013-5-31,91,72,61,75,66,60,100,86,47,30.10,29.95,7,0,7,0.00
2013-6-1,90,75,59,76,68,58,100,81,53,29.99,29.87,8,0,8,0.00
2013-6-2,88,75,64,76,70,63,99,86,61,29.89,29.70,7,0,8,0.01
2013-6-3,78,69,56,70,65,52,99,89,67,29.87,29.76,6,0,6,0.99
2013-6-4,75,60,47,56,49,44,94,69,38,30.10,29.87,10,0,10,0.00
2013-6-5,76,60,45,58,50,44,99,73,40,30.20,30.09,6,0,6,0.00
2013-6-6,72,58,47,61,54,46,98,85,63,30.16,30.03,7,0,7,0.15
2013-6-7,60,57,55,60,57,54,98,98,97,30.04,29.68,8,0,8,1.50
2013-6-8,77,63,53,68,60,53,100,89,68,30.04,29.61,8,0,10,0.51
2013-6-9,79,66,52,67,59,51,100,81,50,30.17,30.04,6,0,6,0.00
2013-6-10,72,62,56,66,60,55,98,94,77,30.17,29.88,8,0,9,1.12
2013-6-11,75,65,59,72,63,57,99,95,82,29.88,29.55,8,0,8,0.27
2013-6-12,73,64,54,61,57,53,97,80,54,29.84,29.64,12,0,13,0.00
2013-6-13,57,55,50,57,54,49,99,98,95,29.83,29.57,12,0,12,1.39
2013-6-14,74,58,50,65,56,50,99,91,63,29.85,29.58,5,0,5,0.47
2013-6-15,80,63,49,64,54,49,100,77,38,29.98,29.85,8,0,9,0.01
2013-6-16,77,63,50,66,58,49,99,85,57,29.98,29.73,1,0,7,0.00
2013-6-17,86,69,55,69,62,55,99,82,47,29.91,29.79,1,0,8,0.01
2013-6-18,83,65,56,70,62,56,99,92,63,29.90,29.81,2,0,6,0.54
2013-6-19,76,65,52,60,54,46,99,69,40,30.16,29.89,8,0,8,0.01
2013-6-20,80,63,46,63,54,45,99,76,42,30.25,30.16,6,0,6,0.00
2013-6-21,83,68,52,70,61,51,99,81,56,30.27,30.19,7,0,8,0.00
2013-6-22,85,70,55,69,62,54,99,78,50,30.24,30.10,9,0,9,0.00
2013-6-23,91,74,59,75,67,58,97,80,49,30.16,30.02,8,0,8,0.00
2013-6-24,92,76,66,78,70,63,99,85,53,30.05,29.91,4,0,11,0.39
2013-6-25,90,74,63,79,70,63,100,89,60,29.98,29.75,6,0,6,0.19
2013-6-26,82,74,67,76,71,66,100,93,76,29.82,29.74,7,0,8,0.00
2013-6-27,67,66,64,66,65,64,99,99,97,29.81,29.76,0,0,1,0.00
2013-6-28,84,75,69,75,72,68,99,90,73,29.58,29.44,1,0,11,0.32
2013-6-29,84,74,65,73,69,64,99,85,58,29.69,29.47,1,0,8,0.00
2013-6-30,83,73,68,77,71,67,98,93,81,29.90,29.69,1,0,12,0.00
2013-7-1,75,72,70,74,72,69,99,97,94,30.04,29.89,7,0,7,0.39
2013-7-2,83,75,71,78,73,71,100,94,80,30.15,30.03,6,0,6,0.02
2013-7-3,85,76,70,78,73,70,99,91,73,30.21,30.13,7,0,7,0.00
2013-7-4,89,79,71,80,74,71,99,87,66,30.21,30.11,7,0,8,0.00
2013-7-5,92,79,69,80,74,68,100,85,62,30.18,30.05,6,0,7,0.00
2013-7-6,91,79,70,81,74,70,100,86,62,30.09,29.99,8,0,8,0.00
2013-7-7,93,80,69,81,75,69,99,86,61,30.03,29.89,8,0,8,0.00
2013-7-8,88,77,66,76,71,66,99,84,61,30.01,29.91,3,0,7,0.01
2013-7-9,88,75,65,77,70,64,99,87,58,30.06,29.98,5,0,6,0.00
2013-7-10,80,73,71,76,72,70,99,96,86,30.00,29.79,4,0,4,0.36
2013-7-11,84,74,66,76,71,64,100,91,64,29.91,29.76,5,0,5,0.12
2013-7-12,82,72,63,72,66,60,98,80,62,30.14,29.91,8,0,8,0.01
2013-7-13,77,71,64,73,68,62,97,91,85,30.28,30.13,5,0,5,0.01
2013-7-14,73,72,72,73,72,71,99,98,97,30.29,30.27,0,0,0,0.00
2013-7-15,91,79,69,79,73,69,100,83,58,30.21,30.11,1,0,7,0.00
2013-7-16,92,76,66,77,71,65,99,86,47,30.18,30.11,1,0,7,0.00
2013-7-17,93,79,66,79,72,66,100,82,46,30.18,30.02,7,0,7,0.00
2013-7-18,95,81,70,80,75,69,99,83,54,30.04,29.92,5,0,6,0.00
2013-7-19,95,82,71,81,76,70,100,83,56,29.94,29.74,8,0,8,0.00
2013-7-20,91,80,69,79,74,67,99,84,60,29.83,29.67,8,0,8,0.00
2013-7-21,89,75,65,73,67,61,99,80,41,29.95,29.82,5,0,5,0.02
2013-7-22,84,74,63,76,70,62,99,89,65,29.96,29.81,0,0,0,0.14
2013-7-23,85,75,72,78,73,71,100,94,71,29.81,29.53,7,0,7,0.24
2013-7-24,79,72,61,74,67,55,100,86,62,29.94,29.59,7,0,7,0.04
2013-7-25,68,62,58,64,58,52,97,85,75,30.07,29.93,4,0,4,0.00
2013-7-26,79,66,61,70,63,60,99,90,61,30.04,29.97,6,0,6,0.01
2013-7-27,83,69,56,71,64,56,100,84,53,30.04,29.95,6,0,6,0.00
2013-7-28,78,69,61,72,66,60,100,91,75,29.99,29.92,4,0,5,0.00
2013-7-29,85,72,59,73,67,58,99,84,59,30.07,29.94,6,0,7,0.00
2013-7-30,80,66,54,68,60,53,99,83,54,30.14,30.07,7,0,7,0.00
2013-7-31,82,68,54,67,60,54,100,81,47,30.15,30.02,5,0,5,0.00
2013-8-1,76,65,59,69,64,59,99,95,74,30.04,29.83,4,0,7,0.00
2013-8-2,81,70,62,71,65,61,100,86,59,29.88,29.77,6,0,6,0.00
2013-8-3,80,66,60,70,64,60,99,92,64,29.88,29.81,5,0,7,0.00
2013-8-4,79,64,53,65,59,53,100,87,52,29.95,29.82,6,0,7,0.00
2013-8-5,76,63,52,58,53,47,99,75,38,30.05,29.93,8,0,9,0.00
2013-8-6,81,64,48,64,57,48,99,79,47,30.12,30.04,5,0,5,0.00
2013-8-7,74,66,54,66,62,54,99,87,69,30.16,30.06,7,0,7,0.00
2013-8-8,82,73,67,75,70,66,99,92,73,30.06,29.98,11,0,11,0.00
2013-8-9,79,73,71,78,72,70,100,98,94,30.00,29.76,6,0,6,0.00
2013-8-10,82,70,58,71,66,56,100,86,57,30.03,29.83,7,0,7,0.00
2013-8-11,79,64,50,64,58,50,99,82,50,30.11,30.00,7,0,7,0.00
2013-8-12,82,68,57,68,62,57,99,84,50,30.03,29.91,4,0,5,0.00
2013-8-13,73,67,62,70,66,61,100,96,85,29.92,29.67,8,0,8,0.03
2013-8-14,72,62,53,63,57,52,100,84,57,30.01,29.73,8,0,8,0.02
2013-8-15,76,61,48,62,55,47,100,83,51,30.14,30.01,6,0,7,0.00
2013-8-16,79,63,50,65,56,50,99,82,45,30.20,30.12,6,0,6,0.00
2013-8-17,81,65,52,67,60,52,99,83,52,30.27,30.20,4,0,4,0.00
2013-8-18,78,66,57,70,63,56,99,90,68,30.26,30.11,4,0,4,0.04
2013-8-19,78,67,56,70,64,55,100,88,65,30.11,30.00,5,0,5,0.00
2013-8-20,84,69,56,71,63,55,100,84,53,30.12,30.03,5,0,5,0.00
2013-8-21,86,70,57,72,64,56,100,84,52,30.17,30.03,5,0,5,0.00
2013-8-22,82,70,61,75,67,60,99,92,74,30.06,29.85,5,0,6,0.00
2013-8-23,80,69,55,67,62,54,99,82,52,30.11,29.86,6,0,6,0.00
2013-8-24,80,63,49,62,55,48,100,78,44,30.34,30.11,5,0,6,0.00
2013-8-25,82,64,48,66,57,48,100,81,42,30.38,30.20,6,0,6,0.13
2013-8-26,76,66,58,71,64,57,99,94,76,30.22,29.90,6,0,8,0.23
2013-8-27,83,72,65,75,69,64,100,91,66,29.90,29.80,7,0,8,0.57
2013-8-28,86,71,61,75,67,60,100,88,59,29.90,29.82,12,0,12,0.00
2013-8-29,78,69,64,71,66,63,99,91,71,30.02,29.89,7,0,7,0.05
2013-8-30,82,71,64,73,67,63,98,90,66,30.02,29.83,6,0,6,0.00
2013-8-31,82,73,67,77,71,66,100,95,83,29.83,29.77,8,0,10,0.18
2013-9-1,80,75,71,77,74,71,100,96,88,29.83,29.78,7,0,7,0.12
2013-9-2,78,73,68,76,71,67,99,96,87,29.81,29.66,8,0,8,0.15
2013-9-3,73,67,58,70,65,58,100,94,79,29.86,29.70,7,0,7,0.01
2013-9-4,78,64,52,64,59,52,100,86,54,29.97,29.85,7,0,8,0.00
2013-9-5,72,61,48,64,54,46,100,82,47,30.15,29.89,11,0,11,0.01
2013-9-6,69,54,42,53,46,42,99,80,44,30.25,30.13,8,0,8,0.00
2013-9-7,78,59,42,62,53,42,99,82,48,30.12,29.88,7,0,7,0.00
2013-9-8,76,63,49,67,57,47,99,83,44,30.09,29.80,12,0,12,0.00
2013-9-9,70,56,41,56,50,40,99,82,51,30.24,30.08,8,0,9,0.00
2013-9-10,76,66,56,75,65,55,100,97,93,30.17,30.03,6,0,7,0.13
2013-9-11,93,76,64,82,72,64,100,90,61,30.09,29.94,7,0,9,0.00
2013-9-12,82,72,66,77,70,65,100,95,82,29.96,29.66,12,0,12,0.64
2013-9-13,73,65,54,68,62,50,100,90,72,29.82,29.60,10,0,14,0.05
2013-9-14,66,54,45,55,50,44,98,86,62,30.11,29.82,11,0,12,0.00
2013-9-15,68,53,39,56,48,39,100,86,54,30.20,30.08,6,0,6,0.00
2013-9-16,66,56,46,58,53,44,99,89,67,30.26,30.03,8,0,9,0.01
2013-9-17,65,50,36,48,42,35,99,79,38,30.43,30.26,11,0,11,0.00
2013-9-18,71,52,37,54,46,37,99,82,41,30.35,30.17,7,0,7,0.00
2013-9-19,76,56,40,59,50,40,100,83,43,30.19,30.05,6,0,6,0.01
2013-9-20,79,59,43,62,53,42,99,83,39,30.09,29.98,7,0,7,0.00
2013-9-21,70,63,52,68,61,51,99,94,78,30.01,29.64,15,1,15,0.17
2013-9-22,67,59,49,66,55,43,100,88,63,29.89,29.61,10,0,10,1.27
2013-9-23,61,50,39,47,44,38,99,82,56,30.04,29.88,14,1,14,0.00
2013-9-24,69,50,36,50,44,35,99,80,42,30.05,29.86,10,0,11,0.00
2013-9-25,70,53,39,55,48,38,100,85,50,29.95,29.87,7,0,7,0.00
2013-9-26,69,57,47,56,52,46,99,86,56,30.11,29.95,7,0,7,0.00
2013-9-27,64,54,44,57,51,43,100,90,71,30.28,30.10,5,0,6,0.00
2013-9-28,73,55,42,60,50,41,100,86,52,30.33,30.24,5,0,6,0.00
2013-9-29,72,55,45,60,51,44,99,88,51,30.25,30.07,5,0,6,0.01
2013-9-30,71,55,43,59,51,42,100,87,57,30.10,29.96,7,0,7,0.00
2013-10-1,77,58,43,62,53,42,100,86,55,30.00,29.89,9,0,9,0.01
2013-10-2,78,58,47,65,56,46,100,92,59,29.99,29.89,7,0,9,0.00
2013-10-3,75,59,46,59,53,45,99,84,44,30.12,29.99,5,0,6,0.01
2013-10-4,79,63,53,70,60,52,100,89,69,30.07,29.96,6,0,6,0.00
2013-10-5,75,65,60,67,62,58,98,92,74,30.09,30.01,5,0,5,0.01
2013-10-6,64,61,58,63,60,57,99,98,96,30.14,30.05,6,0,7,2.47
2013-10-7,73,64,53,70,64,53,100,98,86,30.05,29.74,12,1,16,0.72
2013-10-8,64,52,43,53,46,42,100,83,47,30.36,29.94,14,0,14,0.00
2013-10-9,63,50,39,51,44,38,99,84,50,30.44,30.33,12,0,12,0.01
2013-10-10,62,52,43,55,49,43,98,89,77,30.33,30.13,6,0,8,0.00
2013-10-11,70,60,48,61,55,47,96,85,68,30.13,30.04,8,0,8,0.00
2013-10-12,71,56,44,58,51,43,99,84,58,30.33,30.11,11,1,12,0.00
2013-10-13,66,54,44,54,49,43,99,85,61,30.40,30.31,9,1,9,0.00
2013-10-14,67,51,39,54,46,39,100,85,45,30.38,30.23,6,0,6,0.01
2013-10-15,71,56,45,59,51,44,99,85,57,30.27,30.12,8,0,9,0.00
2013-10-16,62,54,44,56,50,43,99,90,73,30.14,29.91,5,0,6,0.00
2013-10-17,75,62,55,62,58,54,99,88,55,29.91,29.66,8,0,8,0.02
2013-10-18,66,57,42,61,50,41,98,80,48,29.95,29.62,12,1,12,0.02
2013-10-19,66,50,37,52,44,36,99,82,43,29.98,29.73,11,1,12,0.14
2013-10-20,60,50,38,52,43,37,98,80,46,30.05,29.72,12,1,13,0.02
2013-10-21,66,47,33,48,40,32,99,80,39,30.14,29.98,9,1,11,0.00
2013-10-22,63,48,37,53,44,37,99,88,63,29.98,29.73,8,0,8,0.01
2013-10-23,53,42,31,41,36,31,99,82,45,29.81,29.60,7,0,8,0.00
2013-10-24,52,40,30,38,32,28,100,77,42,29.95,29.71,14,1,17,0.01
2013-10-25,50,37,28,36,31,27,98,80,52,30.19,29.94,12,1,12,0.00
2013-10-26,55,40,26,39,31,25,99,73,41,30.19,29.87,18,2,18,0.01
2013-10-27,56,45,32,38,34,30,92,69,39,30.09,29.81,11,1,12,0.00
2013-10-28,59,41,27,40,33,26,98,76,42,30.33,30.09,14,1,14,0.00
2013-10-29,52,40,31,34,30,27,93,69,42,30.43,30.33,11,0,11,0.00
2013-10-30,52,41,31,44,36,29,97,85,65,30.35,30.18,4,0,4,0.00
2013-10-31,58,48,34,58,47,33,99,98,93,30.24,29.80,10,0,10,0.22
2013-11-1,68,58,44,63,56,43,100,93,63,29.80,29.48,17,1,17,0.36
2013-11-2,66,49,39,53,45,38,100,87,48,29.76,29.59,8,0,9,0.02
2013-11-3,47,39,25,42,33,23,100,82,56,30.45,29.76,13,1,17,0.00
2013-11-4,45,32,20,25,21,14,95,69,30,30.68,30.45,8,0,8,0.01
2013-11-5,54,40,28,39,33,25,93,78,56,30.68,30.49,10,1,10,0.00
2013-11-6,59,47,34,48,42,33,99,85,64,30.49,30.05,13,1,13,0.00
2013-11-7,60,50,36,57,48,33,100,93,87,30.05,29.70,13,1,14,0.17
2013-11-8,48,38,32,36,32,27,97,79,52,30.15,29.86,12,1,17,0.00
2013-11-9,46,36,27,34,30,26,96,79,50,30.25,29.99,10,0,10,0.00
2013-11-10,58,43,36,43,37,30,96,80,49,29.99,29.77,18,1,18,0.04
2013-11-11,51,43,32,36,32,28,91,66,46,30.16,29.92,14,1,15,0.00
2013-11-12,46,33,24,38,26,17,93,76,64,30.25,29.91,10,1,17,0.06
2013-11-13,36,27,22,20,18,14,89,69,42,30.35,30.22,13,1,13,0.00
2013-11-14,51,37,21,26,23,18,92,60,28,30.22,30.10,12,1,12,0.00
2013-11-15,58,36,22,29,25,21,94,70,24,30.23,30.13,9,1,9,0.00
2013-11-16,60,38,29,42,32,26,99,81,36,30.31,30.21,5,1,8,0.01
2013-11-17,59,50,33,58,50,32,99,97,93,30.28,29.77,10,1,13,0.05
2013-11-18,64,56,43,60,45,29,100,70,39,29.77,29.54,16,2,16,0.21
2013-11-19,46,39,30,32,26,20,68,59,49,30.33,29.71,15,2,15,0.00
2013-11-20,42,30,20,22,19,15,92,67,34,30.63,30.33,11,1,11,0.00
2013-11-21,48,34,18,36,26,16,95,77,47,30.65,30.39,8,0,9,0.00
2013-11-22,49,44,39,48,43,35,99,96,85,30.39,29.85,5,0,5,0.15
2013-11-23,49,38,27,48,27,12,99,66,40,30.02,29.85,14,2,18,0.01
2013-11-24,27,23,19,12,6,0,71,50,31,30.31,29.92,23,3,23,0.00
2013-11-25,34,23,10,18,13,8,92,66,43,30.45,30.30,12,1,12,0.00
2013-11-26,38,33,29,37,24,15,98,72,52,30.33,29.88,10,1,12,0.35
2013-11-27,53,42,33,53,41,29,99,95,83,29.88,29.30,18,2,19,2.20
2013-11-28,33,28,20,29,18,13,88,69,47,30.46,29.63,8,1,13,0.00
2013-11-29,34,26,20,22,20,14,92,77,55,30.73,30.45,10,0,10,0.01
2013-11-30,33,24,14,23,15,10,93,69,39,30.77,30.39,9,0,9,0.00
2013-12-1,46,36,30,37,31,23,96,83,69,30.39,30.01,4,0,4,0.00
2013-12-2,42,33,27,38,31,26,97,93,77,30.01,29.90,4,0,4,0.00
2013-12-3,48,32,24,40,30,23,100,90,66,30.00,29.87,6,0,8,0.00
2013-12-4,51,34,24,38,30,23,98,87,59,30.16,30.00,7,1,7,0.01
2013-12-5,50,45,38,50,45,35,100,97,88,30.16,29.93,4,0,4,0.07
2013-12-6,51,42,33,51,41,32,100,95,80,30.15,29.86,10,1,10,0.50
2013-12-7,37,31,25,32,28,20,97,88,74,30.50,30.08,9,0,9,0.06
2013-12-8,30,26,18,24,21,17,96,84,68,30.60,30.43,6,0,6,0.00
2013-12-9,35,31,26,34,30,24,99,96,89,30.43,29.94,9,1,9,0.02
2013-12-10,32,28,18,32,28,16,99,98,95,30.06,29.82,6,0,6,0.01
2013-12-11,28,20,15,25,18,13,96,91,78,30.26,30.06,11,1,13,0.00
2013-12-12,24,17,7,18,12,5,95,81,58,30.33,30.12,11,1,11,0.00
2013-12-13,31,25,7,19,16,5,91,68,57,30.36,30.05,17,2,17,0.00
2013-12-14,21,18,14,19,14,11,100,84,70,30.53,29.93,14,2,14,0.00
2013-12-15,33,28,20,30,25,18,97,91,79,29.94,29.50,18,1,18,0.00
2013-12-16,29,20,6,23,12,4,96,73,48,30.22,29.77,6,1,13,0.00
2013-12-17,19,14,4,17,12,1,94,91,87,30.24,29.94,6,1,6,0.00
2013-12-18,33,24,13,25,20,11,100,86,68,30.12,29.93,10,0,10,0.00
2013-12-19,44,25,18,29,22,17,95,89,53,30.15,29.99,3,0,15,0.10
2013-12-20,51,36,28,35,31,26,95,84,53,30.11,29.94,7,1,7,0.23
2013-12-21,57,40,31,46,37,30,97,89,67,29.99,29.87,8,1,8,0.02
2013-12-22,62,51,37,60,50,36,100,97,89,29.94,29.75,12,1,12,0.02
2013-12-23,55,47,35,55,46,30,100,97,81,30.12,29.89,12,1,12,0.61
2013-12-24,35,30,22,30,23,13,86,74,58,30.29,30.07,14,2,14,0.00
2013-12-25,24,19,14,14,10,6,84,67,50,30.51,30.29,12,1,12,0.00
2013-12-26,31,24,19,27,21,14,95,87,77,30.44,30.13,8,0,8,0.02
2013-12-27,36,22,14,24,19,12,96,87,57,30.33,30.24,10,1,13,0.01
2013-12-28,48,29,18,31,24,16,97,84,48,30.26,30.04,12,1,15,0.01
2013-12-29,39,34,27,39,32,25,99,96,90,30.06,29.45,10,1,10,0.77
2013-12-30,36,28,15,36,24,10,99,85,65,30.19,29.64,11,1,13,0.00
2013-12-31,26,18,11,22,14,9,94,83,66,30.24,30.03,8,0,8,0.00
2014-1-1,29,21,11,21,15,9,91,78,54,30.40,30.23,11,0,11,0.01
2014-1-2,23,18,10,20,15,8,94,87,82,30.30,29.75,13,2,13,0.00